Terminal Aerodrome Forecast
Issued by NWS

Home | Current Version | Previous Version | Text Only | Print | Product List | Glossary Off
Versions: 1 2 3 4 5 6 7 8 9 10 11 12 13 14 15 16 17 18 19 20 21

000
FTUS43 KMPX 302045 AAA
TAFAXN
TAF AMD
KAXN 302045Z 3021/3118 18010KT P6SM BKN009
     FM302130 26007KT P6SM SCT015
     FM310800 35009KT P6SM OVC010=

USA.gov is the U.S. government's official web portal to all federal, state and local government web resources and services.